Terminal Aerodrome Forecast
Issued by NWS

Home | Current Version | Previous Version | Text Only | Print | Product List | Glossary On
Versions: 1 2 3 4 5 6 7 8 9 10 11 12 13 14 15 16
000
FTUS43 KMPX 132335
TAFRNH
TAF
KRNH 132335Z 1400/1424 36009KT P6SM SCT025 BKN040
     FM140300 35005KT P6SM SCT020 BKN035
     FM140800 VRB03KT P6SM BKN030
     FM141300 29004KT P6SM OVC015
     FM142000 29006KT P6SM BKN020=

USA.gov is the U.S. government's official web portal to all federal, state and local government web resources and services.